Time;durP1;ratioP1;P1;durP2;ratioP2;P2;SDS_P1;SDS_P2;PMS_P1;PMS_P2;Temp;Humidity;BMP_temperature;BMP_pressure;BME280_temperature;BME280_humidity;BME280_pressure;Samples;Min_cycle;Max_cycle;Signal;HPM_P1;HPM_P2
2022/01/09 00:00:24;;;;;;;20.00;4.05;;;6.40;99.90;;;;;;6277243;22;20020;-88
2022/01/09 00:02:51;;;;;;;21.13;5.15;;;6.30;99.90;;;;;;6224839;22;20043;-89
2022/01/09 00:05:19;;;;;;;21.20;2.67;;;6.30;99.90;;;;;;6276981;22;20023;-88
2022/01/09 00:07:47;;;;;;;26.08;2.90;;;6.40;99.90;;;;;;6224566;22;20114;-90
2022/01/09 00:10:14;;;;;;;27.15;4.22;;;6.40;99.90;;;;;;6224836;22;20043;-89
2022/01/09 00:12:41;;;;;;;28.40;4.47;;;6.40;99.90;;;;;;6276944;22;20012;-90
2022/01/09 00:15:09;;;;;;;24.42;4.15;;;6.40;99.90;;;;;;6276913;22;20041;-89
2022/01/09 00:17:37;;;;;;;20.63;3.97;;;6.40;99.90;;;;;;6277110;22;20089;-88
2022/01/09 00:20:06;;;;;;;22.15;2.67;;;6.40;99.90;;;;;;6251094;22;20438;-87
2022/01/09 00:22:50;;;;;;;36.03;2.75;;;6.40;99.90;;;;;;6277275;22;20020;-88
2022/01/09 00:25:23;;;;;;;27.52;3.40;;;6.50;99.90;;;;;;6250083;22;20015;-89
2022/01/09 00:27:51;;;;;;;25.33;3.97;;;6.50;99.90;;;;;;6250120;22;20016;-88
2022/01/09 00:30:22;;;;;;;20.02;4.97;;;6.40;99.90;;;;;;6249595;22;20070;-89
2022/01/09 00:32:51;;;;;;;26.55;3.33;;;6.50;99.90;;;;;;6224688;22;20073;-89
2022/01/09 00:35:18;;;;;;;21.98;3.40;;;6.50;99.90;;;;;;6249831;22;20095;-88
2022/01/09 00:37:47;;;;;;;30.17;4.85;;;6.50;99.90;;;;;;6250345;22;20319;-90
2022/01/09 00:40:16;;;;;;;31.05;4.47;;;6.50;99.90;;;;;;6224795;22;20024;-88
2022/01/09 00:42:43;;;;;;;25.42;3.63;;;6.40;99.90;;;;;;6276828;22;20012;-89
2022/01/09 00:45:12;;;;;;;16.80;2.78;;;6.40;99.90;;;;;;6225145;22;20031;-88
2022/01/09 00:47:39;;;;;;;24.08;2.75;;;6.40;99.90;;;;;;6224775;22;20016;-90
2022/01/09 00:50:08;;;;;;;23.63;3.95;;;6.40;99.90;;;;;;6249544;22;20053;-88
2022/01/09 00:52:35;;;;;;;23.45;3.55;;;6.40;99.90;;;;;;6276824;22;20046;-88
2022/01/09 00:55:04;;;;;;;9.65;2.92;;;6.40;99.90;;;;;;6250135;22;20015;-89
2022/01/09 00:57:31;;;;;;;21.33;4.53;;;6.40;99.90;;;;;;6224672;22;20470;-88
2022/01/09 00:59:58;;;;;;;19.42;4.18;;;6.40;99.90;;;;;;6249576;22;20012;-88
2022/01/09 01:02:25;;;;;;;26.05;5.05;;;6.40;99.90;;;;;;6250624;22;20042;-88
2022/01/09 01:04:52;;;;;;;31.58;4.65;;;6.40;99.90;;;;;;6252246;22;20046;-88
2022/01/09 01:07:20;;;;;;;15.85;3.05;;;6.50;99.90;;;;;;6227090;22;20106;-89
2022/01/09 01:09:47;;;;;;;28.42;3.42;;;6.40;99.90;;;;;;6252024;22;20099;-88
2022/01/09 01:12:14;;;;;;;27.48;3.53;;;6.40;99.90;;;;;;6278630;22;20095;-89
2022/01/09 01:14:41;;;;;;;15.05;3.17;;;6.40;99.90;;;;;;6278817;22;20015;-90
2022/01/09 01:17:09;;;;;;;29.30;4.43;;;6.40;99.90;;;;;;6251904;22;20443;-89
2022/01/09 01:19:37;;;;;;;19.88;3.10;;;6.40;99.90;;;;;;6226455;22;20359;-88
2022/01/09 01:22:24;;;;;;;26.95;3.85;;;6.40;99.90;;;;;;6278978;22;20026;-88
2022/01/09 01:24:52;;;;;;;18.92;2.78;;;6.40;99.90;;;;;;6252189;22;20015;-88
2022/01/09 01:27:19;;;;;;;30.20;2.78;;;6.40;99.90;;;;;;6226387;22;20020;-87
2022/01/09 01:29:46;;;;;;;22.02;2.97;;;6.40;99.90;;;;;;6251772;22;20051;-89
2022/01/09 01:32:13;;;;;;;26.00;4.05;;;6.40;99.90;;;;;;6251655;22;20016;-89
2022/01/09 01:34:40;;;;;;;16.50;2.95;;;6.50;99.90;;;;;;6252059;22;20019;-89
2022/01/09 01:37:07;;;;;;;20.05;3.08;;;6.40;99.90;;;;;;6251428;22;20028;-90
2022/01/09 01:39:34;;;;;;;28.48;3.00;;;6.40;99.90;;;;;;6278655;22;20020;-89
2022/01/09 01:42:01;;;;;;;19.42;3.78;;;6.40;99.90;;;;;;6279031;22;20050;-89
2022/01/09 01:44:38;;;;;;;24.33;3.30;;;6.40;99.90;;;;;;6226568;22;20403;-90
2022/01/09 01:47:06;;;;;;;24.60;4.38;;;6.40;99.90;;;;;;6226704;22;20050;-88
2022/01/09 01:49:33;;;;;;;24.73;3.55;;;6.40;99.90;;;;;;6251840;22;20497;-89
2022/01/09 01:52:00;;;;;;;11.55;3.28;;;6.40;99.90;;;;;;6251338;22;20020;-89
2022/01/09 01:54:27;;;;;;;18.63;3.25;;;6.40;99.90;;;;;;6251656;22;20039;-90
2022/01/09 01:56:55;;;;;;;17.40;3.63;;;6.40;99.90;;;;;;6226224;22;20501;-89
2022/01/09 01:59:22;;;;;;;16.02;2.38;;;6.40;99.90;;;;;;6278574;22;20012;-89
2022/01/09 02:01:49;;;;;;;19.77;3.15;;;6.40;99.90;;;;;;6225882;22;20077;-89
2022/01/09 02:04:16;;;;;;;14.05;2.22;;;6.40;99.90;;;;;;6278643;22;20489;-87
2022/01/09 02:06:43;;;;;;;15.45;3.70;;;6.40;99.90;;;;;;6250972;22;20443;-90
2022/01/09 02:09:10;;;;;;;18.15;2.30;;;6.40;99.90;;;;;;6250948;22;20106;-88
2022/01/09 02:11:38;;;;;;;16.75;2.97;;;6.40;99.90;;;;;;6278497;22;20053;-89
2022/01/09 02:14:05;;;;;;;14.38;3.05;;;6.40;99.90;;;;;;6250908;22;20011;-88
2022/01/09 02:16:35;;;;;;;14.60;2.90;;;6.40;99.90;;;;;;6251188;22;20023;-88
2022/01/09 02:19:03;;;;;;;33.15;4.07;;;6.40;99.90;;;;;;6251215;22;20098;-89
2022/01/09 02:21:30;;;;;;;23.85;3.00;;;6.40;99.90;;;;;;6251074;22;20020;-89
2022/01/09 02:23:56;;;;;;;23.15;2.58;;;6.40;99.90;;;;;;6250845;22;20043;-88
2022/01/09 02:26:24;;;;;;;14.27;2.75;;;6.40;99.90;;;;;;6250880;22;20027;-89
2022/01/09 02:28:51;;;;;;;13.18;1.90;;;6.30;99.90;;;;;;6251025;22;20020;-88
2022/01/09 02:31:19;;;;;;;13.80;2.55;;;6.30;99.90;;;;;;6251309;22;20047;-90
2022/01/09 02:33:46;;;;;;;16.80;2.90;;;6.30;99.90;;;;;;6251669;22;20023;-88
2022/01/09 02:36:13;;;;;;;10.55;2.28;;;6.30;99.90;;;;;;6225942;22;20435;-90
2022/01/09 02:38:40;;;;;;;10.27;2.38;;;6.30;99.90;;;;;;6250742;22;20039;-88
2022/01/09 02:41:07;;;;;;;11.25;2.70;;;6.30;99.90;;;;;;6225759;22;20042;-90
2022/01/09 02:43:34;;;;;;;22.90;3.22;;;6.30;99.90;;;;;;6251089;22;20070;-88
2022/01/09 02:48:35;;;;;;;14.68;3.13;;;6.30;99.90;;;;;;6277561;22;20099;-89
2022/01/09 02:51:11;;;;;;;21.73;2.13;;;6.30;99.90;;;;;;6251140;22;20024;-89
2022/01/09 02:53:39;;;;;;;15.80;2.17;;;6.20;99.90;;;;;;6225531;22;20047;-88
2022/01/09 02:56:08;;;;;;;9.60;1.83;;;6.20;99.90;;;;;;6277741;22;20019;-89
2022/01/09 02:58:35;;;;;;;11.52;1.55;;;6.20;99.90;;;;;;6277481;22;20047;-89
2022/01/09 03:01:03;;;;;;;11.20;2.08;;;6.20;99.90;;;;;;6250460;22;20107;-88
2022/01/09 03:03:30;;;;;;;8.35;2.08;;;6.20;99.90;;;;;;6250374;22;20107;-88
2022/01/09 03:05:57;;;;;;;10.98;2.00;;;6.20;99.90;;;;;;6250518;22;20034;-88
2022/01/09 03:08:24;;;;;;;13.40;2.45;;;6.20;99.90;;;;;;6277382;22;20015;-89
2022/01/09 03:10:51;;;;;;;9.02;2.00;;;6.20;99.90;;;;;;6225144;22;20059;-89
2022/01/09 03:13:20;;;;;;;15.10;2.05;;;6.20;99.90;;;;;;6250447;22;20015;-88
2022/01/09 03:15:47;;;;;;;12.38;2.28;;;6.20;99.90;;;;;;6250685;22;20016;-89
2022/01/09 03:18:14;;;;;;;14.77;1.67;;;6.20;99.90;;;;;;6276944;22;20086;-89
2022/01/09 03:20:41;;;;;;;15.35;2.17;;;6.10;99.90;;;;;;6277869;22;20090;-89
2022/01/09 03:23:09;;;;;;;7.22;1.40;;;6.10;99.90;;;;;;6250343;22;20019;-87
2022/01/09 03:25:36;;;;;;;13.88;1.38;;;6.00;99.90;;;;;;6250000;22;20046;-89
2022/01/09 03:28:03;;;;;;;11.82;1.25;;;6.00;99.90;;;;;;6250218;22;20023;-88
2022/01/09 03:30:30;;;;;;;9.25;1.65;;;6.00;99.90;;;;;;6277758;22;20041;-89
2022/01/09 03:32:58;;;;;;;13.98;1.33;;;6.00;99.90;;;;;;6277114;22;20431;-90
2022/01/09 03:35:28;;;;;;;9.98;2.03;;;6.00;99.90;;;;;;6277838;22;20018;-89
2022/01/09 03:37:55;;;;;;;7.80;1.90;;;6.00;99.90;;;;;;6250429;22;20106;-89
2022/01/09 03:40:25;;;;;;;8.55;1.40;;;5.90;99.90;;;;;;6277578;22;20019;-89
2022/01/09 03:42:53;;;;;;;12.30;1.50;;;5.90;99.90;;;;;;6277717;22;20027;-89
2022/01/09 03:45:22;;;;;;;14.15;1.73;;;6.00;99.90;;;;;;6277104;22;20020;-89
2022/01/09 03:47:50;;;;;;;11.82;1.58;;;6.00;99.90;;;;;;6250616;22;20015;-90
2022/01/09 03:50:17;;;;;;;8.57;1.08;;;6.00;99.90;;;;;;6224808;22;20073;-88
2022/01/09 03:52:47;;;;;;;9.55;1.27;;;6.00;99.90;;;;;;6250002;22;20015;-90
2022/01/09 03:55:15;;;;;;;18.52;2.97;;;6.00;99.90;;;;;;6277422;22;20016;-89
2022/01/09 03:57:42;;;;;;;16.67;2.38;;;6.10;99.90;;;;;;6250230;22;20015;-89
2022/01/09 04:00:13;;;;;;;16.92;1.50;;;6.10;99.90;;;;;;6224854;22;20046;-88
2022/01/09 04:02:41;;;;;;;11.90;1.77;;;6.10;99.90;;;;;;6250249;22;20023;-90
2022/01/09 04:05:08;;;;;;;14.93;2.00;;;6.10;99.90;;;;;;6225250;22;20501;-90
2022/01/09 04:07:36;;;;;;;15.68;2.53;;;6.10;99.90;;;;;;6277172;22;20095;-88
2022/01/09 04:10:07;;;;;;;14.82;2.95;;;6.10;99.90;;;;;;6224883;22;20046;-88
2022/01/09 04:12:37;;;;;;;13.40;1.90;;;6.00;99.90;;;;;;6276885;22;20039;-88
2022/01/09 04:15:06;;;;;;;14.88;1.70;;;6.10;99.90;;;;;;6250144;22;20026;-89
2022/01/09 04:17:53;;;;;;;13.48;1.90;;;6.10;99.90;;;;;;6277289;22;20016;-88
2022/01/09 04:20:21;;;;;;;13.02;1.38;;;6.10;99.90;;;;;;6276982;22;20016;-90
2022/01/09 04:22:49;;;;;;;16.50;2.10;;;6.10;99.90;;;;;;6250356;22;20099;-88
2022/01/09 04:25:17;;;;;;;20.45;3.35;;;6.10;99.90;;;;;;6224934;22;20024;-88
2022/01/09 04:27:47;;;;;;;13.02;2.30;;;6.10;99.90;;;;;;6250360;22;20016;-90
2022/01/09 04:30:14;;;;;;;10.65;2.17;;;6.10;99.90;;;;;;6276985;22;20094;-88
2022/01/09 04:32:42;;;;;;;16.90;2.05;;;6.10;99.90;;;;;;6277084;22;20043;-88
2022/01/09 04:35:10;;;;;;;14.77;2.28;;;6.00;99.90;;;;;;6276456;22;20439;-88
2022/01/09 04:37:38;;;;;;;16.70;2.42;;;6.00;99.90;;;;;;6224547;22;20024;-88
2022/01/09 04:40:09;;;;;;;10.55;2.25;;;6.10;99.90;;;;;;6276832;22;20043;-89
2022/01/09 04:42:41;;;;;;;15.80;2.28;;;6.00;99.90;;;;;;6224701;22;20351;-88
2022/01/09 04:45:09;;;;;;;14.48;1.83;;;6.00;99.90;;;;;;6249916;22;20439;-89
2022/01/09 04:47:36;;;;;;;12.50;2.70;;;6.10;99.90;;;;;;6249666;22;20598;-88
2022/01/09 04:50:03;;;;;;;17.23;2.38;;;6.00;99.90;;;;;;6276508;22;20019;-90
2022/01/09 04:52:34;;;;;;;15.25;1.77;;;6.00;99.90;;;;;;6276908;22;20094;-89
2022/01/09 04:55:01;;;;;;;10.70;1.40;;;6.00;99.90;;;;;;6250401;22;20019;-89
2022/01/09 04:57:28;;;;;;;18.35;2.42;;;6.00;99.90;;;;;;6224394;22;20026;-88
2022/01/09 04:59:55;;;;;;;17.38;2.00;;;6.00;99.90;;;;;;6276797;22;20012;-89
2022/01/09 05:02:22;;;;;;;10.38;1.70;;;6.00;99.90;;;;;;6249787;22;20091;-88
2022/01/09 05:04:49;;;;;;;9.75;1.60;;;6.00;99.90;;;;;;6249517;22;20031;-90
2022/01/09 05:07:15;;;;;;;15.13;2.38;;;6.00;99.90;;;;;;6249311;22;20433;-88
2022/01/09 05:09:42;;;;;;;15.18;3.17;;;6.00;99.90;;;;;;6249720;22;20431;-88
2022/01/09 05:12:10;;;;;;;13.27;1.88;;;6.00;99.90;;;;;;6225422;22;20412;-88
2022/01/09 05:14:37;;;;;;;9.88;1.95;;;6.00;99.90;;;;;;6249926;22;20505;-89
2022/01/09 05:17:04;;;;;;;10.27;2.25;;;6.00;99.90;;;;;;6249482;22;20107;-88
2022/01/09 05:19:33;;;;;;;9.88;1.52;;;6.00;99.90;;;;;;6249746;22;20020;-88
2022/01/09 05:22:01;;;;;;;13.50;1.77;;;6.00;99.90;;;;;;6249764;22;20065;-90
2022/01/09 05:24:28;;;;;;;7.50;2.00;;;6.00;99.90;;;;;;6276849;22;20042;-87
2022/01/09 05:26:55;;;;;;;11.05;1.90;;;6.00;99.90;;;;;;6276793;22;20486;-89
2022/01/09 05:29:22;;;;;;;11.63;2.33;;;6.00;99.90;;;;;;6276493;22;20451;-87
2022/01/09 05:31:49;;;;;;;11.80;1.50;;;6.00;99.90;;;;;;6224575;22;20024;-88
2022/01/09 05:34:16;;;;;;;14.43;1.67;;;5.90;99.90;;;;;;6224589;22;20043;-88
2022/01/09 05:36:43;;;;;;;7.65;1.27;;;6.00;99.90;;;;;;6249883;22;20016;-88
2022/01/09 05:39:10;;;;;;;13.43;2.83;;;5.90;99.90;;;;;;6249451;22;20396;-88
2022/01/09 05:41:39;;;;;;;11.18;1.63;;;5.90;99.90;;;;;;6249499;22;20095;-88
2022/01/09 05:44:06;;;;;;;20.23;2.50;;;5.90;99.90;;;;;;6277088;22;20029;-88
2022/01/09 05:46:33;;;;;;;12.65;1.38;;;5.90;99.90;;;;;;6249855;22;20027;-90
2022/01/09 05:49:00;;;;;;;11.05;2.05;;;5.90;99.90;;;;;;6250457;22;20041;-89
2022/01/09 05:51:26;;;;;;;14.43;1.85;;;5.90;99.90;;;;;;6278694;22;20019;-87
2022/01/09 05:53:53;;;;;;;12.05;1.52;;;5.90;99.90;;;;;;6278546;22;20065;-89
2022/01/09 05:56:20;;;;;;;10.63;1.25;;;5.90;99.90;;;;;;6251659;22;20019;-88
2022/01/09 05:58:47;;;;;;;9.07;1.45;;;5.90;99.90;;;;;;6225707;22;20229;-90
2022/01/09 06:01:14;;;;;;;13.73;2.42;;;5.90;99.90;;;;;;6251333;22;20022;-88
2022/01/09 06:03:40;;;;;;;8.02;2.03;;;5.90;99.90;;;;;;6278388;22;20020;-89
2022/01/09 06:06:07;;;;;;;16.52;2.15;;;5.90;99.90;;;;;;6278309;22;20015;-89
2022/01/09 06:08:34;;;;;;;8.93;1.27;;;5.80;99.90;;;;;;6250763;22;20019;-88
2022/01/09 06:11:01;;;;;;;9.77;1.50;;;5.90;99.90;;;;;;6278082;22;20054;-89
2022/01/09 06:13:28;;;;;;;11.70;1.67;;;5.90;99.90;;;;;;6226009;22;20106;-89
2022/01/09 06:15:55;;;;;;;9.43;1.55;;;5.90;99.90;;;;;;6278512;22;20019;-90
2022/01/09 06:18:22;;;;;;;5.38;1.40;;;5.90;99.90;;;;;;6225599;22;20023;-89
2022/01/09 06:20:49;;;;;;;9.45;2.78;;;5.80;99.90;;;;;;6251118;22;20043;-89
2022/01/09 06:23:20;;;;;;;13.57;1.90;;;5.90;99.90;;;;;;6278443;22;20016;-89
2022/01/09 06:25:48;;;;;;;12.85;2.83;;;5.90;99.90;;;;;;6251090;22;20039;-88
2022/01/09 06:28:15;;;;;;;10.48;1.50;;;5.90;99.90;;;;;;6225404;22;20026;-89
2022/01/09 06:30:43;;;;;;;11.93;2.67;;;5.90;99.90;;;;;;6251159;22;20111;-88
2022/01/09 06:33:11;;;;;;;4.82;1.20;;;5.90;99.90;;;;;;6226272;22;20466;-88
2022/01/09 06:35:39;;;;;;;11.30;2.30;;;5.90;99.90;;;;;;6278166;22;20020;-90
2022/01/09 06:38:07;;;;;;;9.60;1.40;;;5.90;99.90;;;;;;6251002;22;20094;-90
2022/01/09 06:40:35;;;;;;;7.93;1.75;;;5.80;99.90;;;;;;6225404;22;20383;-88
2022/01/09 06:43:03;;;;;;;9.27;1.63;;;5.90;99.90;;;;;;6251619;22;20462;-88
2022/01/09 06:45:30;;;;;;;5.70;1.20;;;5.90;99.90;;;;;;6251243;22;20022;-90
2022/01/09 06:47:57;;;;;;;6.18;1.60;;;5.80;99.90;;;;;;6277443;22;20015;-90
2022/01/09 06:50:26;;;;;;;10.98;2.65;;;5.80;99.90;;;;;;6277823;22;20436;-88
2022/01/09 06:52:54;;;;;;;20.85;2.55;;;5.80;99.90;;;;;;6251097;22;20096;-88
2022/01/09 06:55:21;;;;;;;8.13;2.10;;;5.80;99.90;;;;;;6250700;22;20015;-89
2022/01/09 06:57:48;;;;;;;7.00;0.93;;;5.80;99.90;;;;;;6251427;22;20087;-87
2022/01/09 07:00:17;;;;;;;14.55;1.45;;;5.80;99.90;;;;;;6250583;22;20047;-88
2022/01/09 07:02:45;;;;;;;11.95;2.08;;;5.80;99.90;;;;;;6278220;22;20027;-88
2022/01/09 07:05:13;;;;;;;11.43;0.60;;;5.80;99.90;;;;;;6251047;22;20019;-88
2022/01/09 07:07:40;;;;;;;7.13;1.60;;;5.80;99.90;;;;;;6225461;22;20024;-89
2022/01/09 07:10:08;;;;;;;11.73;1.88;;;5.80;99.90;;;;;;6225676;22;20023;-88
2022/01/09 07:12:37;;;;;;;13.30;1.27;;;5.80;99.90;;;;;;6225769;22;20026;-89
2022/01/09 07:15:05;;;;;;;17.85;2.47;;;5.80;99.90;;;;;;6277665;22;20012;-88
2022/01/09 07:17:32;;;;;;;14.23;2.20;;;5.80;99.90;;;;;;6250564;22;20012;-89
2022/01/09 07:19:59;;;;;;;13.57;2.40;;;5.80;99.90;;;;;;6277719;22;20073;-90
2022/01/09 07:22:27;;;;;;;17.17;2.60;;;5.80;99.90;;;;;;6250915;22;20011;-88
2022/01/09 07:24:54;;;;;;;3.25;0.73;;;5.80;99.90;;;;;;6250716;22;20070;-89
2022/01/09 07:27:21;;;;;;;12.20;2.40;;;5.80;99.90;;;;;;6225061;22;20030;-88
2022/01/09 07:29:48;;;;;;;12.70;2.63;;;5.80;99.90;;;;;;6250442;22;20119;-88
2022/01/09 07:32:15;;;;;;;10.73;1.35;;;5.80;99.90;;;;;;6250357;22;20024;-88
2022/01/09 07:34:42;;;;;;;14.43;2.00;;;5.80;99.90;;;;;;6250713;22;20020;-88
2022/01/09 07:37:10;;;;;;;6.22;1.33;;;5.80;99.90;;;;;;6250100;22;20046;-88
2022/01/09 07:39:37;;;;;;;9.82;1.70;;;5.80;99.90;;;;;;6250161;22;20106;-90
2022/01/09 07:42:05;;;;;;;8.70;1.73;;;5.80;99.90;;;;;;6225164;22;20044;-90
2022/01/09 07:44:32;;;;;;;12.38;1.30;;;5.80;99.90;;;;;;6225392;22;20019;-89
2022/01/09 07:46:59;;;;;;;9.30;1.88;;;5.80;99.90;;;;;;6250138;22;20050;-88
2022/01/09 07:49:26;;;;;;;12.43;2.15;;;5.80;99.90;;;;;;6250068;22;20023;-89
2022/01/09 07:51:53;;;;;;;6.63;1.40;;;5.80;99.90;;;;;;6250001;22;20023;-88
2022/01/09 07:54:20;;;;;;;11.73;1.60;;;5.80;99.90;;;;;;6276860;22;20016;-88
2022/01/09 07:56:48;;;;;;;7.72;1.40;;;5.80;99.90;;;;;;6249887;22;20012;-88
2022/01/09 07:59:16;;;;;;;8.57;1.35;;;5.80;99.90;;;;;;6248173;22;20020;-88
2022/01/09 08:01:48;;;;;;;9.90;2.05;;;5.70;99.90;;;;;;6246860;22;20410;-88
2022/01/09 08:04:16;;;;;;;11.27;1.35;;;5.80;99.90;;;;;;6277437;22;20023;-88
2022/01/09 08:06:43;;;;;;;4.75;1.15;;;5.70;99.90;;;;;;6257935;22;20051;-90
2022/01/09 08:09:10;;;;;;;12.27;3.20;;;5.70;99.90;;;;;;6276621;22;20016;-88
2022/01/09 08:11:37;;;;;;;5.50;0.95;;;5.70;99.90;;;;;;6276712;22;20020;-88
2022/01/09 08:14:04;;;;;;;5.95;1.33;;;5.70;99.90;;;;;;6224572;22;20058;-89
2022/01/09 08:16:31;;;;;;;9.93;1.58;;;5.70;99.90;;;;;;6276556;22;20039;-88
2022/01/09 08:18:57;;;;;;;12.68;1.45;;;5.70;99.90;;;;;;6249497;22;20016;-88
2022/01/09 08:21:25;;;;;;;4.47;0.77;;;5.70;99.90;;;;;;6250020;22;20035;-90
2022/01/09 08:23:51;;;;;;;8.90;1.25;;;5.70;99.90;;;;;;6249952;22;20020;-90
2022/01/09 08:26:18;;;;;;;13.13;2.25;;;5.70;99.90;;;;;;6276721;22;20046;-89
2022/01/09 08:28:48;;;;;;;22.35;1.65;;;5.70;99.90;;;;;;6249346;22;20024;-88
2022/01/09 08:31:16;;;;;;;4.60;1.20;;;5.70;99.90;;;;;;6249674;22;20019;-87
2022/01/09 08:33:44;;;;;;;6.53;2.05;;;5.70;99.90;;;;;;6249644;22;20026;-88
2022/01/09 08:36:11;;;;;;;11.98;2.53;;;5.70;99.90;;;;;;6249730;22;20016;-89
2022/01/09 08:38:38;;;;;;;13.13;2.03;;;5.70;99.90;;;;;;6276570;22;20038;-89
2022/01/09 08:41:05;;;;;;;11.35;2.00;;;5.70;99.90;;;;;;6224360;22;20027;-90
2022/01/09 08:43:35;;;;;;;6.60;1.38;;;5.70;99.90;;;;;;6276881;22;20008;-88
2022/01/09 08:46:02;;;;;;;8.43;1.38;;;5.70;99.90;;;;;;6224180;22;20012;-89
2022/01/09 08:48:29;;;;;;;7.20;0.88;;;5.70;99.90;;;;;;6276322;22;20016;-87
2022/01/09 08:50:56;;;;;;;15.35;1.75;;;5.70;99.90;;;;;;6276709;22;20011;-89
2022/01/09 08:53:23;;;;;;;11.65;1.25;;;5.70;99.90;;;;;;6249500;22;20187;-88
2022/01/09 08:55:50;;;;;;;11.70;1.77;;;5.70;99.90;;;;;;6249518;22;20039;-88
2022/01/09 08:58:17;;;;;;;11.63;1.70;;;5.70;99.90;;;;;;6249086;22;20016;-89
2022/01/09 09:00:44;;;;;;;7.55;1.63;;;5.80;99.90;;;;;;6253364;22;20026;-87
2022/01/09 09:03:11;;;;;;;11.23;1.25;;;5.80;99.90;;;;;;6253982;22;20016;-89
2022/01/09 09:05:38;;;;;;;11.02;1.42;;;5.80;99.90;;;;;;6249771;22;20027;-89
2022/01/09 09:08:05;;;;;;;11.27;2.13;;;5.80;99.90;;;;;;6252775;22;20039;-88
2022/01/09 09:10:32;;;;;;;15.32;2.25;;;5.80;99.90;;;;;;6281785;22;20078;-87
2022/01/09 09:12:59;;;;;;;5.82;1.42;;;5.80;99.90;;;;;;6285791;22;20118;-88
2022/01/09 09:15:25;;;;;;;6.95;1.10;;;5.80;99.90;;;;;;6281902;22;20095;-89
2022/01/09 09:17:54;;;;;;;13.88;2.10;;;5.80;99.90;;;;;;6224020;22;20369;-88
2022/01/09 09:20:21;;;;;;;7.07;1.00;;;5.80;99.90;;;;;;6253982;22;20019;-88
2022/01/09 09:22:49;;;;;;;9.57;2.10;;;5.80;99.90;;;;;;6250276;22;20126;-88
2022/01/09 09:25:16;;;;;;;8.60;1.00;;;5.80;99.90;;;;;;6278397;22;20016;-89
2022/01/09 09:27:43;;;;;;;7.80;1.83;;;5.90;99.90;;;;;;6251423;22;20039;-90
2022/01/09 09:30:10;;;;;;;13.95;2.25;;;5.90;99.90;;;;;;6251297;22;20031;-87
2022/01/09 09:32:38;;;;;;;7.40;1.25;;;5.90;99.90;;;;;;6278656;22;20042;-89
2022/01/09 09:35:06;;;;;;;7.93;1.80;;;5.90;99.90;;;;;;6251038;22;20016;-88
2022/01/09 09:37:33;;;;;;;3.78;1.40;;;5.90;99.90;;;;;;6278084;22;20015;-88
2022/01/09 09:40:01;;;;;;;12.88;1.70;;;5.90;99.90;;;;;;6278764;22;20094;-87
2022/01/09 09:42:28;;;;;;;18.83;2.05;;;6.00;99.90;;;;;;6225897;22;20347;-89
2022/01/09 09:45:00;;;;;;;12.00;1.50;;;6.00;99.90;;;;;;6278817;22;20257;-90
2022/01/09 09:47:28;;;;;;;14.20;1.75;;;6.00;99.90;;;;;;6277947;22;20094;-90
2022/01/09 09:49:55;;;;;;;6.43;1.42;;;6.00;99.90;;;;;;6226050;22;20363;-87
2022/01/09 09:52:22;;;;;;;7.90;1.77;;;6.10;99.90;;;;;;6278039;22;20043;-88
2022/01/09 09:54:50;;;;;;;6.20;2.17;;;6.00;99.90;;;;;;6251304;22;20023;-90
2022/01/09 09:57:18;;;;;;;8.18;1.42;;;6.00;99.90;;;;;;6251037;22;20027;-89
2022/01/09 09:59:45;;;;;;;12.30;2.03;;;6.00;99.90;;;;;;6251387;22;20019;-89
2022/01/09 10:02:17;;;;;;;12.85;2.13;;;6.00;99.90;;;;;;6278210;22;20513;-88
2022/01/09 10:05:02;;;;;;;18.10;2.53;;;6.10;99.90;;;;;;6225793;22;20093;-89
2022/01/09 10:07:29;;;;;;;7.63;2.20;;;6.10;99.90;;;;;;6277973;22;20019;-90
2022/01/09 10:10:03;;;;;;;6.38;2.25;;;6.20;99.90;;;;;;6251214;22;20030;-89
2022/01/09 10:12:32;;;;;;;19.50;2.40;;;6.20;99.90;;;;;;6251218;22;20517;-88
2022/01/09 10:15:01;;;;;;;12.32;1.60;;;6.20;99.90;;;;;;6225654;22;20024;-88
2022/01/09 10:17:28;;;;;;;10.25;1.55;;;6.20;99.90;;;;;;6255107;22;20382;-88
2022/01/09 10:20:17;;;;;;;17.30;2.28;;;6.20;99.90;;;;;;6251622;22;20040;-88
2022/01/09 10:22:53;;;;;;;15.80;1.65;;;6.30;99.90;;;;;;6250648;22;20106;-88
2022/01/09 10:25:40;;;;;;;10.40;2.40;;;6.20;99.90;;;;;;6251327;22;20105;-88
2022/01/09 10:28:12;;;;;;;5.80;1.60;;;6.30;99.90;;;;;;6250776;22;20016;-89
2022/01/09 10:30:46;;;;;;;18.77;2.28;;;6.30;99.90;;;;;;6251077;22;20406;-88
2022/01/09 10:33:37;;;;;;;6.18;1.27;;;6.30;99.90;;;;;;6226332;22;20073;-88
2022/01/09 10:36:04;;;;;;;7.50;1.33;;;6.30;99.90;;;;;;6258156;22;20016;-87
2022/01/09 10:38:31;;;;;;;7.97;1.20;;;6.30;99.90;;;;;;6250876;22;20039;-89
2022/01/09 10:41:03;;;;;;;14.07;1.77;;;6.30;99.90;;;;;;6250738;22;20020;-88
2022/01/09 10:43:35;;;;;;;7.75;1.30;;;6.30;99.90;;;;;;6250996;22;20019;-89
2022/01/09 10:46:04;;;;;;;12.98;2.17;;;6.30;99.90;;;;;;6250588;22;20023;-88
2022/01/09 10:48:42;;;;;;;13.48;2.88;;;6.30;99.90;;;;;;6277967;22;20054;-90
2022/01/09 10:51:13;;;;;;;10.80;2.20;;;6.30;99.90;;;;;;6251579;22;20065;-89
2022/01/09 10:53:44;;;;;;;10.13;1.67;;;6.30;99.90;;;;;;6225722;22;20028;-89
2022/01/09 10:56:21;;;;;;;11.40;2.55;;;6.30;99.90;;;;;;6277861;22;20011;-88
2022/01/09 10:58:53;;;;;;;7.88;1.33;;;6.40;99.90;;;;;;6277667;22;20043;-89
2022/01/09 11:01:24;;;;;;;9.70;1.23;;;6.40;99.90;;;;;;6225967;22;20019;-89
2022/01/09 11:03:57;;;;;;;8.65;1.40;;;6.40;99.90;;;;;;6225274;22;20020;-89
2022/01/09 11:06:27;;;;;;;4.97;0.80;;;6.40;99.90;;;;;;6277719;22;20042;-89
2022/01/09 11:08:56;;;;;;;9.55;1.73;;;6.40;99.90;;;;;;6250332;22;20020;-88
2022/01/09 11:11:40;;;;;;;10.85;2.17;;;6.40;99.90;;;;;;6250088;22;20115;-89
2022/01/09 11:14:14;;;;;;;11.15;1.50;;;6.40;99.90;;;;;;6225252;22;20443;-88
2022/01/09 11:16:51;;;;;;;;;;;6.40;99.90;;;;;;6251226;22;20049;-89
2022/01/09 11:19:23;;;;;;;12.27;2.33;;;6.40;99.90;;;;;;6250646;22;20385;-90
2022/01/09 11:22:01;;;;;;;9.63;1.58;;;6.40;99.90;;;;;;6250586;22;20050;-89
2022/01/09 11:24:52;;;;;;;10.52;1.77;;;6.30;99.90;;;;;;6277442;22;20019;-90
2022/01/09 11:27:37;;;;;;;9.77;2.33;;;6.30;99.90;;;;;;6250561;22;20039;-89
2022/01/09 11:30:06;;;;;;;6.18;1.30;;;6.40;99.90;;;;;;6250621;22;20016;-89
2022/01/09 11:32:35;;;;;;;8.52;1.98;;;6.30;99.90;;;;;;6250797;22;20015;-89
2022/01/09 11:35:19;;;;;;;17.63;1.85;;;6.40;99.90;;;;;;6224710;22;20016;-88
2022/01/09 11:38:30;;;;;;;8.00;2.35;;;6.40;99.90;;;;;;6250031;22;20086;-90
2022/01/09 11:41:21;;;;;;;4.60;1.65;;;6.40;99.90;;;;;;6277061;22;20016;-89
2022/01/09 11:44:03;;;;;;;10.07;2.05;;;6.40;99.90;;;;;;6277558;22;20090;-89
2022/01/09 11:46:51;;;;;;;11.38;2.13;;;6.40;99.90;;;;;;6249878;22;20476;-89
2022/01/09 11:49:20;;;;;;;11.50;2.45;;;6.40;99.90;;;;;;6258091;22;20071;-89
2022/01/09 11:51:53;;;;;;;11.55;1.80;;;6.40;99.90;;;;;;6250463;22;20022;-92
2022/01/09 11:54:22;;;;;;;12.95;2.20;;;6.40;99.90;;;;;;6224685;22;20544;-89
2022/01/09 11:56:56;;;;;;;12.20;2.22;;;6.40;99.90;;;;;;6225305;22;20018;-88
2022/01/09 11:59:38;;;;;;;13.77;1.70;;;6.40;99.90;;;;;;6249897;22;20020;-90
2022/01/09 12:02:12;;;;;;;20.50;2.47;;;6.50;99.90;;;;;;6250916;22;20016;-88
2022/01/09 12:04:45;;;;;;;16.50;2.28;;;6.50;99.90;;;;;;6225206;22;20016;-89
2022/01/09 12:07:16;;;;;;;11.55;1.40;;;6.50;99.90;;;;;;6226681;22;20070;-89
2022/01/09 12:09:48;;;;;;;11.27;2.15;;;6.50;99.90;;;;;;6250597;22;20011;-89
2022/01/09 12:12:20;;;;;;;5.25;1.10;;;6.50;99.90;;;;;;6250121;22;20048;-90
2022/01/09 12:14:54;;;;;;;7.53;1.33;;;6.50;99.90;;;;;;6277039;22;20034;-88
2022/01/09 12:17:21;;;;;;;9.00;1.60;;;6.50;99.90;;;;;;6225120;22;20091;-88
2022/01/09 12:20:04;;;;;;;16.17;1.65;;;6.50;99.90;;;;;;6276760;22;20016;-88
2022/01/09 12:22:45;;;;;;;7.78;1.38;;;6.50;99.90;;;;;;6249879;22;20016;-90
2022/01/09 12:25:22;;;;;;;6.90;1.25;;;6.40;99.90;;;;;;6225397;22;20031;-89
2022/01/09 12:28:02;;;;;;;11.65;1.23;;;6.40;99.90;;;;;;6224755;22;20019;-92
2022/01/09 12:30:33;;;;;;;13.65;1.77;;;6.40;99.90;;;;;;6250040;22;20038;-90
2022/01/09 12:33:03;;;;;;;10.13;1.48;;;6.40;99.90;;;;;;6250384;22;20111;-89
2022/01/09 12:35:30;;;;;;;10.65;1.90;;;6.40;99.90;;;;;;6250129;22;20026;-88
2022/01/09 12:38:01;;;;;;;14.23;2.10;;;6.40;99.90;;;;;;6249916;22;20024;-89
2022/01/09 12:40:31;;;;;;;12.18;1.95;;;6.40;99.90;;;;;;6250130;22;20019;-89
2022/01/09 12:42:59;;;;;;;15.68;1.63;;;6.40;99.90;;;;;;6249756;22;20020;-89
2022/01/09 12:45:28;;;;;;;11.32;2.10;;;6.50;99.90;;;;;;6277092;22;20047;-88
2022/01/09 12:47:57;;;;;;;10.45;1.30;;;6.50;99.90;;;;;;6249437;22;20031;-88
2022/01/09 12:50:38;;;;;;;11.27;2.13;;;6.50;99.90;;;;;;6249885;22;20026;-89
2022/01/09 12:53:14;;;;;;;13.48;2.22;;;6.50;99.90;;;;;;6225373;22;20024;-89
2022/01/09 12:55:56;;;;;;;20.08;1.98;;;6.60;99.90;;;;;;6249727;22;20024;-89
2022/01/09 12:58:33;;;;;;;9.00;2.03;;;6.60;99.90;;;;;;6278319;22;20023;-89
2022/01/09 13:01:16;;;;;;;8.95;1.95;;;6.60;99.90;;;;;;6279036;22;20324;-90
2022/01/09 13:03:45;;;;;;;9.88;2.28;;;6.60;99.90;;;;;;6278808;22;20035;-90